Time;durP1;ratioP1;P1;durP2;ratioP2;P2;SDS_P1;SDS_P2;PMS_P1;PMS_P2;Temp;Humidity;BMP_temperature;BMP_pressure;BME280_temperature;BME280_humidity;BME280_pressure;Samples;Min_cycle;Max_cycle;Signal;HPM_P1;HPM_P2
2022/04/22 00:01:35;;;;;;;;;;;;;;;;;;4968811;28;20367;-65
2022/04/22 00:04:01;;;;;;;;;;;;;;;;;;4986403;28;20371;-65
2022/04/22 00:06:29;;;;;;;;;;;;;;;;;;4986272;28;20292;-65
2022/04/22 00:08:56;;;;;;;;;;;;;;;;;;4989304;28;19921;-65
2022/04/22 00:11:32;;;;;;;;;;;;;;;;;;4975473;28;19959;-65
2022/04/22 00:14:00;;;;;;;;;;;;;;;;;;4993028;28;20401;-65
2022/04/22 00:16:27;;;;;;;;;;;;;;;;;;4988505;28;20351;-65
2022/04/22 00:18:55;;;;;;;;;;;;;;;;;;4989098;28;20120;-65
2022/04/22 00:21:22;;;;;;;;;;;;;;;;;;4967697;28;20270;-65
2022/04/22 00:23:49;;;;;;;;;;;;;;;;;;4991121;28;19971;-65
2022/04/22 00:26:17;;;;;;;;;;;;;;;;;;4988427;28;20436;-65
2022/04/22 00:28:44;;;;;;;;;;;;;;;;;;4992256;28;19915;-65
2022/04/22 00:31:11;;;;;;;;;;;;;;;;;;4985115;28;19917;-65
2022/04/22 00:33:37;;;;;;;;;;;;;;;;;;4969562;28;20452;-65
2022/04/22 00:36:03;;;;;;;;;;;;;;;;;;4988659;28;19917;-65
2022/04/22 00:38:29;;;;;;;;;;;;;;;;;;4987419;28;19921;-65
2022/04/22 00:40:56;;;;;;;;;;;;;;;;;;4991744;28;19963;-65
2022/04/22 00:43:22;;;;;;;;;;;;;;;;;;4986291;28;19913;-65
2022/04/22 00:45:48;;;;;;;;;;;;;;;;;;4989629;28;20469;-65
2022/04/22 00:48:14;;;;;;;;;;;;;;;;;;4965479;28;19913;-65
2022/04/22 00:50:40;;;;;;;;;;;;;;;;;;4973237;28;19921;-65
2022/04/22 00:53:06;;;;;;;;;;;;;;;;;;4990522;28;19913;-65
2022/04/22 00:55:33;;;;;;;;;;;;;;;;;;4987365;28;20344;-64
2022/04/22 00:57:59;;;;;;;;;;;;;;;;;;4990409;28;20388;-65
2022/04/22 01:00:25;;;;;;;;;;;;;;;;;;4989153;28;19917;-65
2022/04/22 01:02:51;;;;;;;;;;;;;;;;;;4988178;28;20297;-65
2022/04/22 01:10:46;;;;;;;;;;;;;;;;;;4982149;28;20209;-64
2022/04/22 01:13:12;;;;;;;;;;;;;;;;;;4985035;28;19921;-64
2022/04/22 01:15:38;;;;;;;;;;;;;;;;;;4971424;28;19948;-64
2022/04/22 01:18:04;;;;;;;;;;;;;;;;;;4987698;28;20335;-64
2022/04/22 01:20:30;;;;;;;;;;;;;;;;;;4991759;28;19917;-64
2022/04/22 01:22:56;;;;;;;;;;;;;;;;;;4990589;28;20264;-64
2022/04/22 01:25:22;;;;;;;;;;;;;;;;;;4967733;28;20328;-66
2022/04/22 01:27:48;;;;;;;;;;;;;;;;;;4993219;28;19940;-65
2022/04/22 01:30:15;;;;;;;;;;;;;;;;;;4986117;28;20300;-64
2022/04/22 01:32:45;;;;;;;;;;;;;;;;;;4989898;28;20263;-64
2022/04/22 01:35:12;;;;;;;;;;;;;;;;;;4987685;28;19921;-65
2022/04/22 01:37:39;;;;;;;;;;;;;;;;;;4991478;28;19991;-64
2022/04/22 01:40:05;;;;;;;;;;;;;;;;;;4970771;28;20028;-64
2022/04/22 01:42:32;;;;;;;;;;;;;;;;;;4970820;28;19913;-64
2022/04/22 01:44:59;;;;;;;;;;;;;;;;;;4993466;28;19913;-65
2022/04/22 01:47:27;;;;;;;;;;;;;;;;;;4990901;28;19913;-65
2022/04/22 01:49:54;;;;;;;;;;;;;;;;;;4998074;28;19925;-64
2022/04/22 01:52:21;;;;;;;;;;;;;;;;;;4971625;28;20029;-64
2022/04/22 01:54:51;;;;;;;;;;;;;;;;;;4994943;28;19940;-64
2022/04/22 01:57:19;;;;;;;;;;;;;;;;;;4990707;28;20370;-64
2022/04/22 01:59:46;;;;;;;;;;;;;;;;;;4992691;28;19913;-64
2022/04/22 02:02:14;;;;;;;;;;;;;;;;;;4989713;28;19914;-65
2022/04/22 02:04:41;;;;;;;;;;;;;;;;;;4993968;28;20426;-64
2022/04/22 02:07:09;;;;;;;;;;;;;;;;;;4992707;28;19913;-64
2022/04/22 02:09:36;;;;;;;;;;;;;;;;;;4991976;28;19976;-64
2022/04/22 02:12:03;;;;;;;;;;;;;;;;;;4991759;28;20229;-64
2022/04/22 02:14:31;;;;;;;;;;;;;;;;;;4990095;28;21930;-65
2022/04/22 02:16:58;;;;;;;;;;;;;;;;;;4994559;28;20145;-65
2022/04/22 02:19:25;;;;;;;;;;;;;;;;;;4989518;28;19941;-64
2022/04/22 02:21:52;;;;;;;;;;;;;;;;;;4974016;28;19955;-65
2022/04/22 02:24:20;;;;;;;;;;;;;;;;;;4989226;28;20359;-64
2022/04/22 02:29:31;;;;;;;;;;;;;;;;;;4987625;28;19924;-64
2022/04/22 02:31:57;;;;;;;;;;;;;;;;;;4989636;28;19918;-64
2022/04/22 02:34:23;;;;;;;;;;;;;;;;;;4987724;28;19991;-64
2022/04/22 02:36:49;;;;;;;;;;;;;;;;;;4973116;28;19924;-64
2022/04/22 02:39:15;;;;;;;;;;;;;;;;;;4970503;28;19968;-64
2022/04/22 02:47:13;;;;;;;;;;;;;;;;;;4985678;28;20339;-64
2022/04/22 02:49:43;;;;;;;;;;;;;;;;;;4994514;28;20378;-64
2022/04/22 02:52:09;;;;;;;;;;;;;;;;;;4993579;28;19917;-64
2022/04/22 02:54:35;;;;;;;;;;;;;;;;;;4990810;28;20429;-63
2022/04/22 02:57:01;;;;;;;;;;;;;;;;;;4992929;28;20179;-64
2022/04/22 02:59:27;;;;;;;;;;;;;;;;;;4989716;28;19952;-64
2022/04/22 03:01:53;;;;;;;;;;;;;;;;;;4992870;28;20311;-64
2022/04/22 03:04:19;;;;;;;;;;;;;;;;;;4973199;28;19949;-64
2022/04/22 03:06:45;;;;;;;;;;;;;;;;;;4993435;28;20016;-64
2022/04/22 03:09:11;;;;;;;;;;;;;;;;;;4986705;28;20423;-64
2022/04/22 03:11:37;;;;;;;;;;;;;;;;;;4990716;28;19917;-64
2022/04/22 03:14:03;;;;;;;;;;;;;;;;;;4992851;28;19964;-64
2022/04/22 03:16:29;;;;;;;;;;;;;;;;;;4973575;28;19913;-64
2022/04/22 03:18:55;;;;;;;;;;;;;;;;;;4991277;28;19920;-64
2022/04/22 03:21:22;;;;;;;;;;;;;;;;;;4987306;28;20612;-66
2022/04/22 03:23:50;;;;;;;;;;;;;;;;;;4990959;28;19913;-65
2022/04/22 03:26:16;;;;;;;;;;;;;;;;;;4987752;28;20094;-66
2022/04/22 03:28:42;;;;;;;;;;;;;;;;;;4993226;28;20016;-66
2022/04/22 03:31:09;;;;;;;;;;;;;;;;;;4991423;28;19917;-66
2022/04/22 03:33:37;;;;;;;;;;;;;;;;;;4992279;28;19913;-66
2022/04/22 03:36:03;;;;;;;;;;;;;;;;;;4992870;28;19920;-66
2022/04/22 03:38:30;;;;;;;;;;;;;;;;;;4989554;28;19913;-66
2022/04/22 03:40:57;;;;;;;;;;;;;;;;;;4993273;28;19913;-66
2022/04/22 03:43:25;;;;;;;;;;;;;;;;;;4989509;28;19914;-66
2022/04/22 03:45:52;;;;;;;;;;;;;;;;;;4974328;28;20677;-67
2022/04/22 03:48:20;;;;;;;;;;;;;;;;;;4968295;28;20113;-66
2022/04/22 03:50:47;;;;;;;;;;;;;;;;;;4987913;28;19964;-67
2022/04/22 03:53:14;;;;;;;;;;;;;;;;;;4970248;28;20995;-67
2022/04/22 03:55:41;;;;;;;;;;;;;;;;;;4989755;28;20008;-66
2022/04/22 03:58:12;;;;;;;;;;;;;;;;;;4991951;28;20020;-67
2022/04/22 04:00:40;;;;;;;;;;;;;;;;;;4973641;28;20458;-67
2022/04/22 04:03:07;;;;;;;;;;;;;;;;;;4975990;28;19971;-67
2022/04/22 04:05:34;;;;;;;;;;;;;;;;;;4982918;28;20020;-67
2022/04/22 04:08:02;;;;;;;;;;;;;;;;;;4990704;28;20434;-67
2022/04/22 04:16:02;;;;;;;;;;;;;;;;;;4993334;28;20438;-66
2022/04/22 04:18:29;;;;;;;;;;;;;;;;;;4968270;28;19914;-67
2022/04/22 04:23:39;;;;;;;;;;;;;;;;;;4990194;28;19921;-66
2022/04/22 04:26:07;;;;;;;;;;;;;;;;;;4973369;28;19920;-67
2022/04/22 04:28:33;;;;;;;;;;;;;;;;;;4988286;28;20378;-66
2022/04/22 04:30:59;;;;;;;;;;;;;;;;;;4988834;28;19925;-66
2022/04/22 04:33:25;;;;;;;;;;;;;;;;;;4967151;28;19913;-66
2022/04/22 04:35:51;;;;;;;;;;;;;;;;;;4988855;28;19913;-66
2022/04/22 04:38:17;;;;;;;;;;;;;;;;;;4984586;28;19921;-66
2022/04/22 04:40:43;;;;;;;;;;;;;;;;;;4970830;28;20289;-66
2022/04/22 04:43:09;;;;;;;;;;;;;;;;;;4990551;28;19924;-66
2022/04/22 04:45:35;;;;;;;;;;;;;;;;;;4987152;28;19961;-66
2022/04/22 04:48:01;;;;;;;;;;;;;;;;;;4974398;28;19913;-66
2022/04/22 04:50:27;;;;;;;;;;;;;;;;;;4987138;28;20044;-66
2022/04/22 04:52:53;;;;;;;;;;;;;;;;;;4973400;28;19915;-66
2022/04/22 04:55:19;;;;;;;;;;;;;;;;;;4973696;28;19920;-66
2022/04/22 04:57:46;;;;;;;;;;;;;;;;;;4992746;28;19963;-66
2022/04/22 05:00:12;;;;;;;;;;;;;;;;;;4969070;28;19913;-66
2022/04/22 05:02:38;;;;;;;;;;;;;;;;;;4971713;28;19947;-64
2022/04/22 05:05:07;;;;;;;;;;;;;;;;;;4973642;28;19913;-64
2022/04/22 05:07:33;;;;;;;;;;;;;;;;;;4964553;28;20327;-64
2022/04/22 05:09:59;;;;;;;;;;;;;;;;;;4990278;28;19968;-64
2022/04/22 05:12:25;;;;;;;;;;;;;;;;;;4988004;28;19954;-64
2022/04/22 05:14:52;;;;;;;;;;;;;;;;;;4972497;28;19913;-65
2022/04/22 05:17:18;;;;;;;;;;;;;;;;;;4993031;28;19921;-66
2022/04/22 05:19:44;;;;;;;;;;;;;;;;;;4994657;28;20253;-65
2022/04/22 05:22:10;;;;;;;;;;;;;;;;;;4995998;28;19945;-65
2022/04/22 05:24:37;;;;;;;;;;;;;;;;;;4994717;28;19920;-66
2022/04/22 05:27:04;;;;;;;;;;;;;;;;;;4993440;28;20349;-66
2022/04/22 05:32:38;;;;;;;;;;;;;;;;;;4910888;29;20442;-65
2022/04/22 05:35:05;;;;;;;;;;;;;;;;;;4913584;29;19915;-65
2022/04/22 05:37:33;;;;;;;;;;;;;;;;;;4912545;29;19914;-65
2022/04/22 05:39:59;;;;;;;;;;;;;;;;;;4909749;29;19914;-66
2022/04/22 05:42:27;;;;;;;;;;;;;;;;;;4909808;29;19937;-65
2022/04/22 05:44:54;;;;;;;;;;;;;;;;;;4910043;29;19962;-65
2022/04/22 05:47:21;;;;;;;;;;;;;;;;;;4911305;29;20104;-64
2022/04/22 05:49:49;;;;;;;;;;;;;;;;;;4902441;29;19927;-64
2022/04/22 05:52:16;;;;;;;;;;;;;;;;;;4890367;29;20298;-64
2022/04/22 05:54:44;;;;;;;;;;;;;;;;;;4915529;29;19914;-66
2022/04/22 05:57:11;;;;;;;;;;;;;;;;;;4913656;29;19938;-66
2022/04/22 05:59:38;;;;;;;;;;;;;;;;;;4908247;29;19919;-65
2022/04/22 06:02:06;;;;;;;;;;;;;;;;;;4904552;29;20366;-68
2022/04/22 06:04:33;;;;;;;;;;;;;;;;;;4910090;29;20749;-66
2022/04/22 06:07:00;;;;;;;;;;;;;;;;;;4885671;29;19915;-67
2022/04/22 06:12:13;;;;;;;;;;;;;;;;;;4991624;28;20257;-68
2022/04/22 06:14:40;;;;;;;;;;;;;;;;;;4992086;28;19913;-67
2022/04/22 06:17:07;;;;;;;;;;;;;;;;;;4991310;28;19917;-68
2022/04/22 06:19:35;;;;;;;;;;;;;;;;;;4985766;28;19919;-67
2022/04/22 06:22:02;;;;;;;;;;;;;;;;;;4976271;28;19917;-67
2022/04/22 06:24:29;;;;;;;;;;;;;;;;;;4988501;28;19984;-67
2022/04/22 06:26:55;;;;;;;;;;;;;;;;;;4992602;28;20471;-71
2022/04/22 06:29:22;;;;;;;;;;;;;;;;;;4989390;28;19913;-70
2022/04/22 06:31:49;;;;;;;;;;;;;;;;;;4994116;28;19918;-70
2022/04/22 06:34:15;;;;;;;;;;;;;;;;;;4991921;28;20363;-70
2022/04/22 06:36:41;;;;;;;;;;;;;;;;;;4994576;28;19923;-72
2022/04/22 06:39:07;;;;;;;;;;;;;;;;;;4992035;28;19917;-70
2022/04/22 06:47:04;;;;;;;;;;;;;;;;;;4988641;28;20654;-69
2022/04/22 06:49:30;;;;;;;;;;;;;;;;;;4992136;28;21227;-70
2022/04/22 06:51:56;;;;;;;;;;;;;;;;;;4993400;28;20364;-70
2022/04/22 06:54:22;;;;;;;;;;;;;;;;;;4985103;28;19948;-69
2022/04/22 06:56:49;;;;;;;;;;;;;;;;;;4990162;28;19917;-70
2022/04/22 06:59:19;;;;;;;;;;;;;;;;;;4991023;28;20072;-71
2022/04/22 07:01:45;;;;;;;;;;;;;;;;;;4974742;28;20319;-70
2022/04/22 07:04:11;;;;;;;;;;;;;;;;;;4988124;28;19913;-70
2022/04/22 07:06:37;;;;;;;;;;;;;;;;;;4976086;28;19917;-70
2022/04/22 07:09:04;;;;;;;;;;;;;;;;;;4989673;28;19968;-70
2022/04/22 07:11:30;;;;;;;;;;;;;;;;;;4975532;28;20455;-70
2022/04/22 07:13:56;;;;;;;;;;;;;;;;;;4992974;28;19917;-70
2022/04/22 07:16:22;;;;;;;;;;;;;;;;;;4989688;28;20198;-69
2022/04/22 07:18:48;;;;;;;;;;;;;;;;;;4975743;28;20150;-70
2022/04/22 07:21:14;;;;;;;;;;;;;;;;;;4970196;28;19913;-71
2022/04/22 07:23:40;;;;;;;;;;;;;;;;;;4992334;28;19920;-70
2022/04/22 07:26:06;;;;;;;;;;;;;;;;;;4992430;28;19921;-70
2022/04/22 07:28:32;;;;;;;;;;;;;;;;;;4987724;28;20590;-71
2022/04/22 07:30:59;;;;;;;;;;;;;;;;;;4971715;28;20003;-69
2022/04/22 07:33:27;;;;;;;;;;;;;;;;;;4974918;28;19917;-70
2022/04/22 07:35:53;;;;;;;;;;;;;;;;;;4984183;28;20453;-70
2022/04/22 07:38:21;;;;;;;;;;;;;;;;;;4988025;28;19913;-70
2022/04/22 07:40:48;;;;;;;;;;;;;;;;;;4970254;28;20405;-72
2022/04/22 07:48:45;;;;;;;;;;;;;;;;;;4984576;28;19920;-67
2022/04/22 07:51:11;;;;;;;;;;;;;;;;;;4980545;28;19917;-70
2022/04/22 07:53:38;;;;;;;;;;;;;;;;;;4984159;28;20238;-67
2022/04/22 07:56:06;;;;;;;;;;;;;;;;;;4963540;28;19914;-67
2022/04/22 07:58:32;;;;;;;;;;;;;;;;;;4963846;28;20554;-67
2022/04/22 08:01:04;;;;;;;;;;;;;;;;;;4967979;28;20004;-66
2022/04/22 08:03:31;;;;;;;;;;;;;;;;;;4959201;28;19921;-67
2022/04/22 08:05:57;;;;;;;;;;;;;;;;;;4964180;28;19956;-67
2022/04/22 08:08:28;;;;;;;;;;;;;;;;;;4944958;28;20040;-68
2022/04/22 08:10:55;;;;;;;;;;;;;;;;;;4963311;28;21215;-69
2022/04/22 08:13:24;;;;;;;;;;;;;;;;;;4960339;28;20442;-67
2022/04/22 08:15:52;;;;;;;;;;;;;;;;;;4966506;28;20506;-70
2022/04/22 08:18:18;;;;;;;;;;;;;;;;;;4959378;28;19944;-67
2022/04/22 08:20:46;;;;;;;;;;;;;;;;;;4964369;28;20727;-69
2022/04/22 08:23:13;;;;;;;;;;;;;;;;;;4961987;28;20281;-67
2022/04/22 08:25:41;;;;;;;;;;;;;;;;;;4964170;28;19936;-67
2022/04/22 08:28:07;;;;;;;;;;;;;;;;;;4962604;28;19921;-68
2022/04/22 08:30:35;;;;;;;;;;;;;;;;;;4960749;28;20293;-68
2022/04/22 08:33:01;;;;;;;;;;;;;;;;;;4962271;28;19918;-68
2022/04/22 08:35:27;;;;;;;;;;;;;;;;;;4959623;28;19964;-68
2022/04/22 08:37:53;;;;;;;;;;;;;;;;;;4947042;28;20127;-66
2022/04/22 08:40:21;;;;;;;;;;;;;;;;;;4963192;28;19952;-69
2022/04/22 08:42:47;;;;;;;;;;;;;;;;;;4960342;28;20024;-68
2022/04/22 08:45:13;;;;;;;;;;;;;;;;;;4946712;28;19976;-68
2022/04/22 08:50:25;;;;;;;;;;;;;;;;;;4976617;28;20480;-67
2022/04/22 08:52:51;;;;;;;;;;;;;;;;;;4964656;28;19914;-69
2022/04/22 08:55:18;;;;;;;;;;;;;;;;;;4963119;28;19913;-67
2022/04/22 08:57:47;;;;;;;;;;;;;;;;;;4983573;28;19921;-69
2022/04/22 09:00:14;;;;;;;;;;;;;;;;;;4964079;28;19913;-67
2022/04/22 09:02:43;;;;;;;;;;;;;;;;;;4947502;28;20341;-67
2022/04/22 09:05:11;;;;;;;;;;;;;;;;;;4986331;28;20028;-69
2022/04/22 09:07:38;;;;;;;;;;;;;;;;;;4981942;28;19944;-68
2022/04/22 09:10:06;;;;;;;;;;;;;;;;;;4965102;28;20746;-68
2022/04/22 09:12:34;;;;;;;;;;;;;;;;;;4978739;28;20527;-68
2022/04/22 09:15:03;;;;;;;;;;;;;;;;;;4979340;28;20980;-67
2022/04/22 09:17:29;;;;;;;;;;;;;;;;;;4977936;28;19917;-67
2022/04/22 09:19:57;;;;;;;;;;;;;;;;;;4981534;28;19925;-67
2022/04/22 09:22:24;;;;;;;;;;;;;;;;;;4965743;28;20276;-67
2022/04/22 09:24:50;;;;;;;;;;;;;;;;;;4960223;28;20273;-67
2022/04/22 09:27:18;;;;;;;;;;;;;;;;;;4979670;28;19913;-68
2022/04/22 09:29:44;;;;;;;;;;;;;;;;;;4984480;28;19920;-70
2022/04/22 09:32:16;;;;;;;;;;;;;;;;;;4986767;28;20315;-69
2022/04/22 09:34:42;;;;;;;;;;;;;;;;;;4969286;28;19917;-68
2022/04/22 09:42:39;;;;;;;;;;;;;;;;;;4982715;28;19948;-69
2022/04/22 09:45:06;;;;;;;;;;;;;;;;;;4983926;28;19933;-68
2022/04/22 09:47:32;;;;;;;;;;;;;;;;;;4982026;28;20612;-69
2022/04/22 09:49:58;;;;;;;;;;;;;;;;;;4985862;28;19921;-68
2022/04/22 09:52:26;;;;;;;;;;;;;;;;;;4982948;28;19913;-68
2022/04/22 09:54:52;;;;;;;;;;;;;;;;;;4985994;28;20028;-68
2022/04/22 09:57:18;;;;;;;;;;;;;;;;;;4983884;28;19913;-68
2022/04/22 09:59:44;;;;;;;;;;;;;;;;;;4991381;28;20366;-68
2022/04/22 10:02:11;;;;;;;;;;;;;;;;;;4985784;28;19921;-68
2022/04/22 10:04:38;;;;;;;;;;;;;;;;;;4987151;28;19913;-68
2022/04/22 10:07:04;;;;;;;;;;;;;;;;;;4989468;28;20372;-68
2022/04/22 10:09:30;;;;;;;;;;;;;;;;;;4986927;28;20400;-69
2022/04/22 10:11:57;;;;;;;;;;;;;;;;;;4994557;28;19925;-67
2022/04/22 10:14:24;;;;;;;;;;;;;;;;;;4989966;28;19954;-69
2022/04/22 10:16:53;;;;;;;;;;;;;;;;;;4990182;28;19963;-67
2022/04/22 10:19:19;;;;;;;;;;;;;;;;;;4990774;28;20456;-70
2022/04/22 10:21:45;;;;;;;;;;;;;;;;;;4972901;28;19939;-68
2022/04/22 10:24:13;;;;;;;;;;;;;;;;;;4987625;28;20358;-68
2022/04/22 10:26:41;;;;;;;;;;;;;;;;;;4990340;28;19923;-69
2022/04/22 10:29:09;;;;;;;;;;;;;;;;;;4989295;28;20003;-68
2022/04/22 10:31:36;;;;;;;;;;;;;;;;;;4987766;28;20004;-68
2022/04/22 10:34:03;;;;;;;;;;;;;;;;;;4990148;28;19955;-68
2022/04/22 10:36:30;;;;;;;;;;;;;;;;;;4986170;28;20272;-68
2022/04/22 10:38:58;;;;;;;;;;;;;;;;;;4985663;28;19913;-68
2022/04/22 10:41:25;;;;;;;;;;;;;;;;;;4971697;28;20014;-68
2022/04/22 10:49:22;;;;;;;;;;;;;;;;;;4989075;28;19916;-70
2022/04/22 10:51:48;;;;;;;;;;;;;;;;;;4988411;28;19936;-69
2022/04/22 10:54:16;;;;;;;;;;;;;;;;;;4988219;28;20377;-68
2022/04/22 10:56:44;;;;;;;;;;;;;;;;;;4968225;28;20226;-68
2022/04/22 10:59:12;;;;;;;;;;;;;;;;;;4990006;28;19921;-69
2022/04/22 11:01:38;;;;;;;;;;;;;;;;;;4987378;28;19917;-68
2022/04/22 11:04:05;;;;;;;;;;;;;;;;;;4975455;28;19916;-68
2022/04/22 11:06:33;;;;;;;;;;;;;;;;;;4985376;28;20654;-68
2022/04/22 11:09:00;;;;;;;;;;;;;;;;;;4991914;28;20280;-70
2022/04/22 11:11:28;;;;;;;;;;;;;;;;;;4988162;28;19927;-69
2022/04/22 11:13:57;;;;;;;;;;;;;;;;;;4993073;28;20012;-70
2022/04/22 11:16:30;;;;;;;;;;;;;;;;;;4990165;28;19920;-68
2022/04/22 11:18:57;;;;;;;;;;;;;;;;;;4968573;28;20352;-68
2022/04/22 11:21:24;;;;;;;;;;;;;;;;;;4968178;28;19913;-68
2022/04/22 11:23:51;;;;;;;;;;;;;;;;;;4974310;28;19929;-69
2022/04/22 11:26:17;;;;;;;;;;;;;;;;;;4964288;28;19976;-68
2022/04/22 11:28:45;;;;;;;;;;;;;;;;;;4995010;28;19917;-70
2022/04/22 11:31:12;;;;;;;;;;;;;;;;;;4989003;28;20340;-68
2022/04/22 11:33:38;;;;;;;;;;;;;;;;;;4976599;28;19921;-69
2022/04/22 11:36:11;;;;;;;;;;;;;;;;;;4987877;28;20469;-69
2022/04/22 11:38:42;;;;;;;;;;;;;;;;;;4994505;28;20253;-69
2022/04/22 11:41:08;;;;;;;;;;;;;;;;;;4991117;28;20392;-69
2022/04/22 11:43:35;;;;;;;;;;;;;;;;;;4983173;28;20000;-68
2022/04/22 11:46:03;;;;;;;;;;;;;;;;;;4989098;28;20478;-69
2022/04/22 11:48:30;;;;;;;;;;;;;;;;;;4970014;28;19913;-69
2022/04/22 11:50:58;;;;;;;;;;;;;;;;;;4995357;28;19923;-69
2022/04/22 11:53:26;;;;;;;;;;;;;;;;;;4990666;28;19953;-69
2022/04/22 11:55:53;;;;;;;;;;;;;;;;;;4993394;28;20022;-69
2022/04/22 11:58:28;;;;;;;;;;;;;;;;;;4970229;28;19917;-69
2022/04/22 12:06:36;;;;;;;;;;;;;;;;;;4991895;28;20437;-69
2022/04/22 12:09:02;;;;;;;;;;;;;;;;;;4989450;28;19923;-69
2022/04/22 12:11:28;;;;;;;;;;;;;;;;;;4987892;28;19917;-68
2022/04/22 12:13:55;;;;;;;;;;;;;;;;;;4972267;28;20390;-68
2022/04/22 12:16:21;;;;;;;;;;;;;;;;;;4990563;28;19913;-68
2022/04/22 12:18:48;;;;;;;;;;;;;;;;;;4989535;28;20284;-69
2022/04/22 12:21:14;;;;;;;;;;;;;;;;;;4987493;28;20346;-68
2022/04/22 12:23:43;;;;;;;;;;;;;;;;;;4989482;28;19921;-69
2022/04/22 12:26:09;;;;;;;;;;;;;;;;;;4989467;28;19917;-69
2022/04/22 12:28:37;;;;;;;;;;;;;;;;;;4985946;28;19913;-69
2022/04/22 12:31:04;;;;;;;;;;;;;;;;;;4990853;28;19979;-69
2022/04/22 12:33:32;;;;;;;;;;;;;;;;;;4968186;28;20600;-70
2022/04/22 12:35:59;;;;;;;;;;;;;;;;;;4988084;28;19920;-69
2022/04/22 12:38:27;;;;;;;;;;;;;;;;;;4981898;28;20283;-69
2022/04/22 12:40:53;;;;;;;;;;;;;;;;;;4970542;28;19913;-69
2022/04/22 12:43:19;;;;;;;;;;;;;;;;;;4971443;28;19944;-68
2022/04/22 12:54:00;;;;;;;;;;;;;;;;;;4989363;28;20371;-68
2022/04/22 12:56:29;;;;;;;;;;;;;;;;;;4987484;28;20781;-70
2022/04/22 12:58:55;;;;;;;;;;;;;;;;;;4989949;28;20242;-70
2022/04/22 13:01:23;;;;;;;;;;;;;;;;;;4983057;28;20341;-70
2022/04/22 13:03:49;;;;;;;;;;;;;;;;;;4967098;28;19920;-69
2022/04/22 13:06:17;;;;;;;;;;;;;;;;;;4955559;28;20340;-68
2022/04/22 13:08:44;;;;;;;;;;;;;;;;;;4969054;28;19981;-70
2022/04/22 13:11:13;;;;;;;;;;;;;;;;;;4954314;28;19917;-68
2022/04/22 13:13:40;;;;;;;;;;;;;;;;;;4962911;28;19948;-70
2022/04/22 13:16:06;;;;;;;;;;;;;;;;;;4965672;28;20308;-70
2022/04/22 13:18:44;;;;;;;;;;;;;;;;;;4960126;28;19917;-70
2022/04/22 13:21:10;;;;;;;;;;;;;;;;;;4968509;28;20343;-68
2022/04/22 13:23:37;;;;;;;;;;;;;;;;;;4962781;28;19956;-71
2022/04/22 13:26:05;;;;;;;;;;;;;;;;;;4963289;28;19917;-70
2022/04/22 13:28:31;;;;;;;;;;;;;;;;;;4960333;28;20047;-70
2022/04/22 13:30:57;;;;;;;;;;;;;;;;;;4950406;28;20525;-71
2022/04/22 13:33:24;;;;;;;;;;;;;;;;;;4963157;28;20399;-70
2022/04/22 13:35:52;;;;;;;;;;;;;;;;;;4967351;28;19918;-70
2022/04/22 13:38:21;;;;;;;;;;;;;;;;;;4963128;28;20375;-70
2022/04/22 13:40:50;;;;;;;;;;;;;;;;;;4970770;28;19947;-70
2022/04/22 13:43:16;;;;;;;;;;;;;;;;;;4962258;28;20405;-70
2022/04/22 13:53:55;;;;;;;;;;;;;;;;;;4976071;28;19928;-70
2022/04/22 13:56:22;;;;;;;;;;;;;;;;;;4985939;28;19917;-70
2022/04/22 13:58:48;;;;;;;;;;;;;;;;;;4976410;28;19952;-69
2022/04/22 14:01:14;;;;;;;;;;;;;;;;;;4989994;28;19913;-69
2022/04/22 14:03:41;;;;;;;;;;;;;;;;;;4973174;28;19979;-69
2022/04/22 14:06:08;;;;;;;;;;;;;;;;;;4991649;28;20479;-70
2022/04/22 14:08:35;;;;;;;;;;;;;;;;;;4970595;28;20123;-71
2022/04/22 14:11:02;;;;;;;;;;;;;;;;;;4965935;28;19957;-71
2022/04/22 14:13:31;;;;;;;;;;;;;;;;;;4980519;28;20419;-71
2022/04/22 14:15:58;;;;;;;;;;;;;;;;;;4987446;28;20035;-72
2022/04/22 14:18:30;;;;;;;;;;;;;;;;;;4969200;28;20023;-70
2022/04/22 14:20:58;;;;;;;;;;;;;;;;;;4976936;28;19913;-70
2022/04/22 14:23:25;;;;;;;;;;;;;;;;;;4982486;28;19917;-70
2022/04/22 14:25:51;;;;;;;;;;;;;;;;;;4990118;28;19920;-70
2022/04/22 14:28:18;;;;;;;;;;;;;;;;;;4981970;28;19913;-70
2022/04/22 14:30:45;;;;;;;;;;;;;;;;;;4953765;28;20546;-70
2022/04/22 14:33:15;;;;;;;;;;;;;;;;;;4991233;28;19983;-70
2022/04/22 14:35:43;;;;;;;;;;;;;;;;;;4985293;28;19959;-69
2022/04/22 14:38:09;;;;;;;;;;;;;;;;;;4972001;28;19981;-71
2022/04/22 14:40:36;;;;;;;;;;;;;;;;;;4963443;28;19913;-69
2022/04/22 14:43:06;;;;;;;;;;;;;;;;;;4986846;28;19948;-69
2022/04/22 14:45:33;;;;;;;;;;;;;;;;;;4969938;28;20502;-70
2022/04/22 14:48:02;;;;;;;;;;;;;;;;;;4985073;28;20394;-70
2022/04/22 14:50:28;;;;;;;;;;;;;;;;;;4971860;28;20383;-69
2022/04/22 14:52:55;;;;;;;;;;;;;;;;;;4968746;28;19914;-71
2022/04/22 14:55:24;;;;;;;;;;;;;;;;;;4982336;28;19925;-70
2022/04/22 14:57:52;;;;;;;;;;;;;;;;;;4978591;28;20582;-70
2022/04/22 15:00:21;;;;;;;;;;;;;;;;;;4986045;28;19977;-70
2022/04/22 15:02:49;;;;;;;;;;;;;;;;;;4973503;28;20024;-70
2022/04/22 15:05:17;;;;;;;;;;;;;;;;;;4973345;28;19913;-70
2022/04/22 15:07:47;;;;;;;;;;;;;;;;;;4987724;28;19913;-69
2022/04/22 15:10:17;;;;;;;;;;;;;;;;;;4985026;28;19925;-70
2022/04/22 15:12:43;;;;;;;;;;;;;;;;;;4973410;28;19935;-69
2022/04/22 15:15:13;;;;;;;;;;;;;;;;;;4984912;28;20294;-70
2022/04/22 15:26:15;;;;;;;;;;;;;;;;;;4933395;28;19968;-70
2022/04/22 15:28:41;;;;;;;;;;;;;;;;;;4930051;28;19918;-70
2022/04/22 15:31:11;;;;;;;;;;;;;;;;;;4936373;28;20409;-70
2022/04/22 15:33:39;;;;;;;;;;;;;;;;;;4933934;28;20015;-71
2022/04/22 15:36:07;;;;;;;;;;;;;;;;;;4938294;28;20337;-70
2022/04/22 15:38:34;;;;;;;;;;;;;;;;;;4920775;28;19910;-71
2022/04/22 15:41:02;;;;;;;;;;;;;;;;;;4943150;28;20274;-71
2022/04/22 15:43:28;;;;;;;;;;;;;;;;;;4936404;28;19914;-69
2022/04/22 15:45:54;;;;;;;;;;;;;;;;;;4937436;28;20651;-68
2022/04/22 15:48:21;;;;;;;;;;;;;;;;;;4934710;28;19921;-69
2022/04/22 15:50:53;;;;;;;;;;;;;;;;;;4937089;28;19953;-70
2022/04/22 15:53:20;;;;;;;;;;;;;;;;;;4937295;28;19922;-69
2022/04/22 15:55:48;;;;;;;;;;;;;;;;;;4924488;28;19914;-68
2022/04/22 15:58:17;;;;;;;;;;;;;;;;;;4937227;28;19914;-69
2022/04/22 16:00:43;;;;;;;;;;;;;;;;;;4926037;28;19914;-69
2022/04/22 16:03:10;;;;;;;;;;;;;;;;;;4946142;28;19918;-70
2022/04/22 16:05:43;;;;;;;;;;;;;;;;;;4947121;28;20448;-69
2022/04/22 16:08:16;;;;;;;;;;;;;;;;;;4946322;28;20345;-68
2022/04/22 16:10:44;;;;;;;;;;;;;;;;;;4947564;28;19993;-69
2022/04/22 16:15:54;;;;;;;;;;;;;;;;;;4946866;28;19928;-69
2022/04/22 16:18:24;;;;;;;;;;;;;;;;;;4969599;28;19918;-69
2022/04/22 16:21:06;;;;;;;;;;;;;;;;;;4984019;28;19964;-69
2022/04/22 16:23:32;;;;;;;;;;;;;;;;;;4967698;28;19952;-68
2022/04/22 16:25:59;;;;;;;;;;;;;;;;;;4987385;28;19996;-69
2022/04/22 16:28:27;;;;;;;;;;;;;;;;;;4962771;28;19913;-68
2022/04/22 16:30:53;;;;;;;;;;;;;;;;;;4966300;28;19917;-69
2022/04/22 16:33:21;;;;;;;;;;;;;;;;;;4984280;28;19913;-69
2022/04/22 16:35:48;;;;;;;;;;;;;;;;;;4968233;28;20388;-68
2022/04/22 16:38:14;;;;;;;;;;;;;;;;;;4979816;28;19914;-69
2022/04/22 16:40:41;;;;;;;;;;;;;;;;;;4984301;28;19913;-69
2022/04/22 16:43:07;;;;;;;;;;;;;;;;;;4968548;28;19913;-68
2022/04/22 16:45:33;;;;;;;;;;;;;;;;;;4985050;28;20656;-69
2022/04/22 16:48:03;;;;;;;;;;;;;;;;;;4984705;28;20174;-69
2022/04/22 16:50:32;;;;;;;;;;;;;;;;;;4987025;28;19917;-69
2022/04/22 16:53:00;;;;;;;;;;;;;;;;;;4982363;28;19913;-68
2022/04/22 16:55:33;;;;;;;;;;;;;;;;;;4978967;28;20331;-68
2022/04/22 16:58:00;;;;;;;;;;;;;;;;;;4982446;28;20550;-68
2022/04/22 17:00:31;;;;;;;;;;;;;;;;;;4964237;28;19946;-69
2022/04/22 17:03:00;;;;;;;;;;;;;;;;;;4961899;28;19913;-68
2022/04/22 17:05:26;;;;;;;;;;;;;;;;;;4957711;28;19966;-68
2022/04/22 17:10:29;;;;;;;;;;;;;;;;;;5588000;23;19956;-69
2022/04/22 17:12:55;;;;;;;;;;;;;;;;;;5018345;28;20263;-67
2022/04/22 17:23:36;;;;;;;;;;;;;;;;;;5017871;28;19920;-68
2022/04/22 17:26:01;;;;;;;;;;;;;;;;;;5018053;28;20267;-68
2022/04/22 17:28:27;;;;;;;;;;;;;;;;;;5018793;28;20378;-68
2022/04/22 17:30:53;;;;;;;;;;;;;;;;;;5002734;28;19921;-67
2022/04/22 17:33:21;;;;;;;;;;;;;;;;;;5016633;28;19920;-68
2022/04/22 17:35:47;;;;;;;;;;;;;;;;;;4980609;28;19995;-66
2022/04/22 17:38:13;;;;;;;;;;;;;;;;;;5013149;28;19924;-68
2022/04/22 17:40:40;;;;;;;;;;;;;;;;;;5016001;28;19978;-66
2022/04/22 17:43:06;;;;;;;;;;;;;;;;;;5011789;28;19919;-67
2022/04/22 17:45:32;;;;;;;;;;;;;;;;;;4993655;28;20763;-68
2022/04/22 17:47:58;;;;;;;;;;;;;;;;;;5014728;28;19998;-68
2022/04/22 17:50:24;;;;;;;;;;;;;;;;;;4991316;28;20090;-68
2022/04/22 17:52:52;;;;;;;;;;;;;;;;;;5010331;28;19913;-68
2022/04/22 17:55:20;;;;;;;;;;;;;;;;;;5003828;28;19925;-69
2022/04/22 17:57:47;;;;;;;;;;;;;;;;;;5016674;28;19920;-68
2022/04/22 18:00:13;;;;;;;;;;;;;;;;;;4993209;28;20444;-67
2022/04/22 18:02:39;;;;;;;;;;;;;;;;;;5016613;28;20559;-67
2022/04/22 18:05:06;;;;;;;;;;;;;;;;;;5017719;28;19920;-66
2022/04/22 18:07:32;;;;;;;;;;;;;;;;;;5008566;28;19925;-66
2022/04/22 18:09:59;;;;;;;;;;;;;;;;;;4993852;28;19921;-66
2022/04/22 18:12:25;;;;;;;;;;;;;;;;;;5015251;28;19951;-66
2022/04/22 18:17:36;;;;;;;;;;;;;;;;;;5012039;28;20629;-68
2022/04/22 18:20:02;;;;;;;;;;;;;;;;;;5017188;28;20177;-68
2022/04/22 18:22:28;;;;;;;;;;;;;;;;;;4992966;28;19991;-70
2022/04/22 18:24:54;;;;;;;;;;;;;;;;;;5009897;28;20109;-67